Time;durP1;ratioP1;P1;durP2;ratioP2;P2;SDS_P1;SDS_P2;PMS_P1;PMS_P2;Temp;Humidity;BMP_temperature;BMP_pressure;BME280_temperature;BME280_humidity;BME280_pressure;Samples;Min_cycle;Max_cycle;Signal;HPM_P1;HPM_P2
2021/05/24 00:00:14;;;;;;;0.20;0.20;;;8.80;99.90;;;;;;5012903;28;20184;-85
2021/05/24 00:02:40;;;;;;;0.10;0.10;;;8.90;99.90;;;;;;5001757;28;20184;-85
2021/05/24 00:05:09;;;;;;;0.17;0.17;;;9.00;99.90;;;;;;5012788;28;20216;-85
2021/05/24 00:07:35;;;;;;;0.07;0.07;;;9.00;99.90;;;;;;4995183;28;20701;-85
2021/05/24 00:10:02;;;;;;;0.10;0.10;;;9.20;99.90;;;;;;4995248;28;20188;-85
2021/05/24 00:12:28;;;;;;;0.57;0.20;;;9.30;99.90;;;;;;4994958;28;20272;-85
2021/05/24 00:14:54;;;;;;;0.43;0.20;;;9.40;99.90;;;;;;4994946;28;20222;-85
2021/05/24 00:17:20;;;;;;;0.00;0.00;;;9.30;99.90;;;;;;4982206;28;20198;-85
2021/05/24 00:19:46;;;;;;;0.10;0.10;;;9.10;99.90;;;;;;4994696;28;20204;-85
2021/05/24 00:22:12;;;;;;;0.10;0.10;;;8.90;99.90;;;;;;5012413;28;20195;-85
2021/05/24 00:24:37;;;;;;;0.00;0.00;;;8.70;99.90;;;;;;4994547;28;20215;-85
2021/05/24 00:27:03;;;;;;;0.27;0.10;;;8.70;99.90;;;;;;5012432;28;20193;-85
2021/05/24 00:29:29;;;;;;;0.10;0.10;;;8.60;99.90;;;;;;5012535;28;20228;-85
2021/05/24 00:31:54;;;;;;;0.00;0.00;;;8.60;99.90;;;;;;4994845;28;20284;-85
2021/05/24 00:34:20;;;;;;;0.10;0.10;;;8.50;99.90;;;;;;4994818;28;20211;-85
2021/05/24 00:36:46;;;;;;;0.37;0.30;;;8.50;99.90;;;;;;5012559;28;20230;-85
2021/05/24 00:39:11;;;;;;;0.00;0.00;;;8.50;99.90;;;;;;5012462;28;20180;-85
2021/05/24 00:41:39;;;;;;;0.10;0.10;;;8.60;99.90;;;;;;5012317;28;20716;-85
2021/05/24 00:44:06;;;;;;;0.63;0.20;;;8.60;99.90;;;;;;4994544;28;20186;-85
2021/05/24 00:46:32;;;;;;;0.50;0.33;;;8.80;99.90;;;;;;4994782;28;20559;-85
2021/05/24 00:48:58;;;;;;;0.40;0.40;;;8.80;99.90;;;;;;4994735;28;20198;-85
2021/05/24 00:51:25;;;;;;;0.00;0.00;;;8.80;99.90;;;;;;4994576;28;20193;-85
2021/05/24 00:53:51;;;;;;;0.20;0.20;;;8.80;99.90;;;;;;4994678;28;20646;-85
2021/05/24 00:56:17;;;;;;;0.87;0.50;;;8.60;99.90;;;;;;4994469;28;20225;-85
2021/05/24 00:58:43;;;;;;;0.10;0.10;;;8.50;99.90;;;;;;4994782;28;20183;-85
2021/05/24 01:01:09;;;;;;;0.33;0.33;;;8.40;99.90;;;;;;5011896;28;20185;-86
2021/05/24 01:03:34;;;;;;;0.20;0.20;;;8.40;99.90;;;;;;5003717;28;20205;-85
2021/05/24 01:06:00;;;;;;;0.20;0.20;;;8.40;99.90;;;;;;4989776;28;20217;-85
2021/05/24 01:08:25;;;;;;;0.10;0.10;;;8.30;99.90;;;;;;4994544;28;20211;-85
2021/05/24 01:10:58;;;;;;;0.10;0.10;;;8.20;99.90;;;;;;4994436;28;20261;-85
2021/05/24 01:13:24;;;;;;;0.27;0.27;;;8.20;99.90;;;;;;5012232;28;20178;-85
2021/05/24 01:15:50;;;;;;;0.50;0.30;;;8.30;99.90;;;;;;4991768;28;20315;-85
2021/05/24 01:18:15;;;;;;;0.10;0.10;;;8.40;99.90;;;;;;4984416;28;20661;-84
2021/05/24 01:20:41;;;;;;;0.10;0.10;;;8.50;99.90;;;;;;4994102;28;20199;-85
2021/05/24 01:23:10;;;;;;;0.00;0.00;;;8.60;99.90;;;;;;5011878;28;20178;-85
2021/05/24 01:25:42;;;;;;;0.10;0.10;;;8.70;99.90;;;;;;4994318;28;20684;-86
2021/05/24 01:28:11;;;;;;;0.10;0.10;;;8.70;99.90;;;;;;5011646;28;20212;-85
2021/05/24 01:30:37;;;;;;;0.20;0.20;;;8.70;99.90;;;;;;4984540;28;20581;-85
2021/05/24 01:33:04;;;;;;;0.10;0.10;;;8.70;99.90;;;;;;5011693;28;20257;-85
2021/05/24 01:35:30;;;;;;;0.00;0.00;;;8.60;99.90;;;;;;4994475;28;20222;-86
2021/05/24 01:37:56;;;;;;;0.00;0.00;;;8.50;99.90;;;;;;4996570;28;20183;-86
2021/05/24 01:40:23;;;;;;;0.50;0.30;;;8.30;99.90;;;;;;5012961;28;20188;-85
2021/05/24 01:42:56;;;;;;;0.20;0.20;;;8.20;99.90;;;;;;5011610;28;20189;-85
2021/05/24 01:45:23;;;;;;;0.30;0.17;;;8.10;99.90;;;;;;4998628;28;20213;-85
2021/05/24 01:47:49;;;;;;;0.10;0.10;;;8.00;99.90;;;;;;4997791;28;20199;-85
2021/05/24 01:50:16;;;;;;;0.10;0.10;;;8.10;99.90;;;;;;4997701;28;20227;-85
2021/05/24 01:52:42;;;;;;;0.80;0.80;;;8.20;99.90;;;;;;4997544;28;20226;-85
2021/05/24 01:55:10;;;;;;;0.10;0.10;;;8.30;99.90;;;;;;4997356;28;20222;-85
2021/05/24 01:57:36;;;;;;;0.00;0.00;;;8.40;99.90;;;;;;4997673;28;20191;-85
2021/05/24 02:00:05;;;;;;;0.00;0.00;;;8.50;99.90;;;;;;5014978;28;20181;-84
2021/05/24 02:02:31;;;;;;;0.10;0.10;;;8.60;99.90;;;;;;5014694;28;20731;-85
2021/05/24 02:04:56;;;;;;;0.00;0.00;;;8.50;99.90;;;;;;4997372;28;20402;-86
2021/05/24 02:07:26;;;;;;;0.00;0.00;;;8.30;99.90;;;;;;5014957;28;20199;-85
2021/05/24 02:09:51;;;;;;;0.00;0.00;;;8.20;99.90;;;;;;4997284;28;20239;-86
2021/05/24 02:12:17;;;;;;;0.10;0.10;;;8.20;99.90;;;;;;4996823;28;20187;-85
2021/05/24 02:14:43;;;;;;;0.20;0.20;;;8.10;99.90;;;;;;5014372;28;20211;-85
2021/05/24 02:17:09;;;;;;;0.10;0.10;;;8.00;99.90;;;;;;4997148;28;20668;-85
2021/05/24 02:19:36;;;;;;;0.10;0.10;;;7.90;99.90;;;;;;5014173;28;20254;-84
2021/05/24 02:22:02;;;;;;;0.13;0.13;;;7.80;99.90;;;;;;5014079;28;20237;-85
2021/05/24 02:24:28;;;;;;;0.30;0.30;;;7.80;99.90;;;;;;4996962;28;20723;-85
2021/05/24 02:26:53;;;;;;;0.00;0.00;;;7.80;99.90;;;;;;4996445;28;20635;-85
2021/05/24 02:29:19;;;;;;;0.27;0.27;;;7.80;99.90;;;;;;5014607;28;20175;-85
2021/05/24 02:31:44;;;;;;;0.10;0.10;;;7.80;99.90;;;;;;5014011;28;20188;-85
2021/05/24 02:34:10;;;;;;;0.10;0.10;;;7.70;99.90;;;;;;5001450;28;20370;-85
2021/05/24 02:36:36;;;;;;;0.10;0.10;;;7.80;99.90;;;;;;4996485;28;20187;-85
2021/05/24 02:39:07;;;;;;;0.10;0.10;;;7.80;99.90;;;;;;4996612;28;20656;-85
2021/05/24 02:41:33;;;;;;;1.30;0.30;;;7.80;99.90;;;;;;4996213;28;20218;-85
2021/05/24 02:43:59;;;;;;;0.10;0.10;;;7.80;99.90;;;;;;5014177;28;20173;-86
2021/05/24 02:46:25;;;;;;;0.10;0.10;;;7.80;99.90;;;;;;4996399;28;20179;-85
2021/05/24 02:48:50;;;;;;;0.10;0.10;;;7.80;99.90;;;;;;4996196;28;20275;-85
2021/05/24 02:51:16;;;;;;;0.73;0.73;;;7.70;99.90;;;;;;5007927;28;20183;-86
2021/05/24 02:53:41;;;;;;;1.13;0.20;;;7.70;99.90;;;;;;5013882;28;20200;-85
2021/05/24 02:56:07;;;;;;;0.50;0.30;;;7.80;99.90;;;;;;4995963;28;20209;-85
2021/05/24 02:58:33;;;;;;;0.10;0.10;;;7.80;99.90;;;;;;5001444;28;20171;-85
2021/05/24 03:00:58;;;;;;;0.10;0.10;;;7.70;99.90;;;;;;4995804;28;20763;-85
2021/05/24 03:03:24;;;;;;;0.10;0.10;;;7.70;99.90;;;;;;4996194;28;20179;-86
2021/05/24 03:05:51;;;;;;;0.10;0.10;;;7.70;99.90;;;;;;5013606;28;20207;-86
2021/05/24 03:08:17;;;;;;;0.10;0.10;;;7.80;99.90;;;;;;5013538;28;20557;-85
2021/05/24 03:10:42;;;;;;;0.03;0.03;;;7.80;99.90;;;;;;4995973;28;20180;-85
2021/05/24 03:13:09;;;;;;;0.10;0.10;;;7.90;99.90;;;;;;4995820;28;20273;-85
2021/05/24 03:15:34;;;;;;;0.00;0.00;;;7.90;99.90;;;;;;4996025;28;20203;-85
2021/05/24 03:18:00;;;;;;;0.10;0.10;;;8.00;99.90;;;;;;5013329;28;20207;-85
2021/05/24 03:20:25;;;;;;;0.63;0.63;;;8.00;99.90;;;;;;4995572;28;20184;-85
2021/05/24 03:22:51;;;;;;;0.10;0.10;;;8.00;99.90;;;;;;4995388;28;20273;-85
2021/05/24 03:25:18;;;;;;;0.00;0.00;;;8.00;99.90;;;;;;5013125;28;20231;-85
2021/05/24 03:27:44;;;;;;;0.17;0.17;;;8.00;99.90;;;;;;4995575;28;20319;-85
2021/05/24 03:30:11;;;;;;;0.10;0.10;;;7.90;99.90;;;;;;4985461;28;20195;-85
2021/05/24 03:32:38;;;;;;;0.20;0.20;;;8.00;99.90;;;;;;5012725;28;20176;-85
2021/05/24 03:35:07;;;;;;;0.10;0.10;;;7.90;99.90;;;;;;4995497;28;20200;-85
2021/05/24 03:37:32;;;;;;;0.20;0.20;;;8.00;99.90;;;;;;5013078;28;20237;-85
2021/05/24 03:39:58;;;;;;;0.10;0.10;;;8.00;99.90;;;;;;4995628;28;20184;-85
2021/05/24 03:42:24;;;;;;;0.10;0.10;;;7.90;99.90;;;;;;4995470;28;20219;-85
2021/05/24 03:44:50;;;;;;;0.23;0.23;;;7.80;99.90;;;;;;4995319;28;20208;-85
2021/05/24 03:47:16;;;;;;;0.10;0.10;;;8.40;99.90;;;;;;5012456;28;20195;-84
2021/05/24 03:49:45;;;;;;;0.10;0.10;;;9.20;99.90;;;;;;5000620;28;20186;-85
2021/05/24 03:52:14;;;;;;;0.00;0.00;;;9.90;99.90;;;;;;5012810;28;20543;-85
2021/05/24 03:54:40;;;;;;;0.10;0.10;;;10.80;99.90;;;;;;4995060;28;20213;-86
2021/05/24 03:57:07;;;;;;;0.07;0.07;;;11.30;99.90;;;;;;4995320;28;20258;-86
2021/05/24 03:59:33;;;;;;;0.30;0.30;;;11.50;99.90;;;;;;4994623;28;20198;-86
2021/05/24 04:01:59;;;;;;;0.23;0.23;;;11.50;99.90;;;;;;4996691;28;20576;-86
2021/05/24 04:04:24;;;;;;;0.10;0.10;;;11.90;99.90;;;;;;4999022;28;20256;-85
2021/05/24 04:06:54;;;;;;;0.20;0.20;;;12.00;99.90;;;;;;4995037;28;20179;-85
2021/05/24 04:09:20;;;;;;;0.20;0.20;;;12.20;99.90;;;;;;4995084;28;20175;-85
2021/05/24 04:11:45;;;;;;;0.13;0.13;;;12.30;99.90;;;;;;4994877;28;20189;-85
2021/05/24 04:14:11;;;;;;;0.10;0.10;;;12.40;99.90;;;;;;5012595;28;20194;-85
2021/05/24 04:16:38;;;;;;;0.10;0.10;;;12.20;99.90;;;;;;4986172;28;20186;-85
2021/05/24 04:19:08;;;;;;;0.00;0.00;;;11.30;99.90;;;;;;5008119;28;20184;-85
2021/05/24 04:21:34;;;;;;;0.10;0.10;;;11.00;99.90;;;;;;4994822;28;20584;-85
2021/05/24 04:24:00;;;;;;;0.10;0.10;;;10.60;99.90;;;;;;5012264;28;20236;-88
2021/05/24 04:26:26;;;;;;;0.10;0.10;;;10.10;99.90;;;;;;4995264;28;20186;-85
2021/05/24 04:28:51;;;;;;;0.10;0.10;;;9.70;99.90;;;;;;4994997;28;20862;-86
2021/05/24 04:31:17;;;;;;;0.10;0.10;;;9.50;99.90;;;;;;4984478;28;20205;-86
2021/05/24 04:33:42;;;;;;;0.10;0.10;;;9.40;99.90;;;;;;5012320;28;20185;-85
2021/05/24 04:36:08;;;;;;;0.10;0.10;;;9.20;99.90;;;;;;4994721;28;20205;-85
2021/05/24 04:38:33;;;;;;;0.10;0.10;;;9.20;99.90;;;;;;4994660;28;20784;-85
2021/05/24 04:40:59;;;;;;;0.00;0.00;;;9.30;99.90;;;;;;5012509;28;20200;-85
2021/05/24 04:43:29;;;;;;;0.20;0.20;;;9.50;99.90;;;;;;4994999;28;20206;-85
2021/05/24 04:45:55;;;;;;;0.10;0.10;;;9.30;99.90;;;;;;4994913;28;20212;-86
2021/05/24 04:48:21;;;;;;;0.07;0.07;;;9.50;99.90;;;;;;5012137;28;20220;-85
2021/05/24 04:50:46;;;;;;;0.10;0.10;;;9.60;99.90;;;;;;4985938;28;20183;-85
2021/05/24 04:53:12;;;;;;;0.57;0.57;;;9.70;99.90;;;;;;4991547;28;20186;-85
2021/05/24 04:55:37;;;;;;;0.10;0.10;;;9.60;99.90;;;;;;4994516;28;20218;-85
2021/05/24 04:58:03;;;;;;;0.07;0.07;;;9.50;99.90;;;;;;5012453;28;20628;-84
2021/05/24 05:00:31;;;;;;;0.17;0.17;;;9.80;99.90;;;;;;5012160;28;20192;-84
2021/05/24 05:02:56;;;;;;;0.10;0.10;;;9.80;99.90;;;;;;4994278;28;20195;-85
2021/05/24 05:05:22;;;;;;;0.10;0.10;;;9.90;99.90;;;;;;4994640;28;20682;-85
2021/05/24 05:07:47;;;;;;;0.10;0.10;;;10.00;99.90;;;;;;4994482;28;20202;-85
2021/05/24 05:10:13;;;;;;;0.20;0.20;;;10.20;99.90;;;;;;4994401;28;20665;-86
2021/05/24 05:12:38;;;;;;;0.30;0.30;;;10.30;99.90;;;;;;4996333;28;20180;-85
2021/05/24 05:15:05;;;;;;;0.13;0.13;;;10.20;99.90;;;;;;4998227;28;20214;-85
2021/05/24 05:17:30;;;;;;;0.30;0.20;;;10.20;99.90;;;;;;5015506;28;20258;-84
2021/05/24 05:19:56;;;;;;;0.00;0.00;;;10.30;99.90;;;;;;5015294;28;20606;-85
2021/05/24 05:22:21;;;;;;;0.17;0.17;;;10.40;99.90;;;;;;4997778;28;20186;-85
2021/05/24 05:24:47;;;;;;;0.20;0.20;;;10.60;99.90;;;;;;4997885;28;20232;-85
2021/05/24 05:27:13;;;;;;;0.83;0.67;;;10.90;99.90;;;;;;4998517;28;20710;-86
2021/05/24 05:29:39;;;;;;;0.10;0.10;;;10.90;99.90;;;;;;4998847;28;20186;-85
2021/05/24 05:32:05;;;;;;;0.10;0.10;;;10.90;99.90;;;;;;5015221;28;20593;-85
2021/05/24 05:34:30;;;;;;;0.10;0.10;;;11.30;99.90;;;;;;5014611;28;20298;-86
2021/05/24 05:36:56;;;;;;;0.10;0.10;;;11.20;99.90;;;;;;4997842;28;20175;-86
2021/05/24 05:39:21;;;;;;;0.27;0.27;;;11.20;99.90;;;;;;4997677;28;20183;-85
2021/05/24 05:41:47;;;;;;;0.10;0.10;;;11.40;99.90;;;;;;4997573;28;20669;-85
2021/05/24 05:44:12;;;;;;;0.10;0.10;;;11.50;99.90;;;;;;4997605;28;20656;-85
2021/05/24 05:46:38;;;;;;;0.10;0.10;;;11.70;99.90;;;;;;4997714;28;20191;-85
2021/05/24 05:49:04;;;;;;;0.10;0.10;;;12.10;99.90;;;;;;4997385;28;20241;-85
2021/05/24 05:51:29;;;;;;;0.10;0.10;;;12.00;99.90;;;;;;4983964;28;20271;-85
2021/05/24 05:53:56;;;;;;;0.10;0.10;;;12.20;99.90;;;;;;4997287;28;20186;-84
2021/05/24 05:56:22;;;;;;;0.20;0.20;;;12.50;99.90;;;;;;4997130;28;20236;-85
2021/05/24 05:58:47;;;;;;;0.10;0.10;;;12.50;99.90;;;;;;5015136;28;20191;-85
2021/05/24 06:01:13;;;;;;;0.10;0.10;;;12.80;99.90;;;;;;4996785;28;20225;-85
2021/05/24 06:03:39;;;;;;;0.10;0.10;;;13.00;99.90;;;;;;4997467;28;20727;-85
2021/05/24 06:06:05;;;;;;;0.20;0.20;;;13.10;99.90;;;;;;4997332;28;20210;-84
2021/05/24 06:08:31;;;;;;;0.10;0.10;;;13.10;99.90;;;;;;4997122;28;20615;-85
2021/05/24 06:10:57;;;;;;;0.60;0.60;;;13.20;99.90;;;;;;4996992;28;20184;-85
2021/05/24 06:13:24;;;;;;;0.20;0.20;;;12.80;99.90;;;;;;4997063;28;20191;-85
2021/05/24 06:15:50;;;;;;;0.10;0.10;;;13.10;99.90;;;;;;4997005;28;20663;-85
2021/05/24 06:18:15;;;;;;;0.10;0.10;;;13.60;99.90;;;;;;4997231;28;20195;-86
2021/05/24 06:20:46;;;;;;;0.10;0.10;;;14.00;99.90;;;;;;4996434;28;20189;-85
2021/05/24 06:23:13;;;;;;;0.37;0.37;;;14.30;99.90;;;;;;4996269;28;20541;-86
2021/05/24 06:25:39;;;;;;;0.30;0.30;;;14.50;99.90;;;;;;4996894;28;20206;-85
2021/05/24 06:28:04;;;;;;;0.10;0.10;;;14.20;99.90;;;;;;4996760;28;20213;-85
2021/05/24 06:30:30;;;;;;;0.53;0.37;;;14.40;99.90;;;;;;5014277;28;20185;-85
2021/05/24 06:32:55;;;;;;;0.17;0.17;;;13.80;99.90;;;;;;4996519;28;20185;-85
2021/05/24 06:35:23;;;;;;;0.10;0.10;;;13.30;99.90;;;;;;4996068;28;20290;-85
2021/05/24 06:37:49;;;;;;;0.10;0.10;;;13.50;99.90;;;;;;5014427;28;20268;-85
2021/05/24 06:40:15;;;;;;;0.13;0.13;;;13.80;99.90;;;;;;4996633;28;20280;-86
2021/05/24 06:42:41;;;;;;;0.10;0.10;;;14.20;99.90;;;;;;5014038;28;20237;-85
2021/05/24 06:45:09;;;;;;;0.50;0.20;;;14.40;99.90;;;;;;5014199;28;20208;-85
2021/05/24 06:47:35;;;;;;;0.40;0.40;;;14.50;99.90;;;;;;4996588;28;20259;-86
2021/05/24 06:50:00;;;;;;;0.33;0.33;;;14.80;99.90;;;;;;4996300;28;20171;-86
2021/05/24 06:52:26;;;;;;;0.70;0.70;;;14.70;99.90;;;;;;4998966;28;20195;-86
2021/05/24 06:54:52;;;;;;;0.23;0.23;;;14.90;99.90;;;;;;4999799;28;20252;-85
2021/05/24 06:57:17;;;;;;;0.73;0.30;;;14.80;99.90;;;;;;4996552;28;20276;-85
2021/05/24 06:59:43;;;;;;;0.37;0.30;;;14.80;99.90;;;;;;4996365;28;20240;-86
2021/05/24 07:02:09;;;;;;;0.23;0.23;;;14.10;99.90;;;;;;5010333;28;20183;-85
2021/05/24 07:04:35;;;;;;;0.20;0.20;;;14.00;99.90;;;;;;4992710;28;20220;-85
2021/05/24 07:07:01;;;;;;;0.20;0.20;;;14.40;99.90;;;;;;4996102;28;20193;-85
2021/05/24 07:09:27;;;;;;;0.30;0.30;;;14.10;99.90;;;;;;4996277;28;20190;-85
2021/05/24 07:11:53;;;;;;;0.20;0.20;;;14.30;99.90;;;;;;4995971;28;20324;-84
2021/05/24 07:14:19;;;;;;;0.40;0.40;;;14.30;99.90;;;;;;4996346;28;20194;-88
2021/05/24 07:16:44;;;;;;;0.20;0.20;;;13.80;99.90;;;;;;4996558;28;20190;-85
2021/05/24 07:19:10;;;;;;;0.20;0.20;;;14.00;99.90;;;;;;4996439;28;20756;-85
2021/05/24 07:21:35;;;;;;;0.10;0.10;;;13.70;99.90;;;;;;5013674;28;20566;-85
2021/05/24 07:24:01;;;;;;;2.67;0.47;;;13.50;99.90;;;;;;5001378;28;20666;-85
2021/05/24 07:26:26;;;;;;;0.20;0.20;;;13.50;99.90;;;;;;5014253;28;20666;-85
2021/05/24 07:28:52;;;;;;;0.57;0.27;;;13.70;99.90;;;;;;4996842;28;20212;-85
2021/05/24 07:31:18;;;;;;;0.17;0.17;;;13.70;99.90;;;;;;4996810;28;20206;-85
2021/05/24 07:33:44;;;;;;;0.20;0.20;;;13.70;99.90;;;;;;4996269;28;20341;-86
2021/05/24 07:36:09;;;;;;;0.30;0.20;;;14.40;99.90;;;;;;4995848;28;20217;-86
2021/05/24 07:38:35;;;;;;;0.37;0.20;;;14.40;99.90;;;;;;5013604;28;20188;-86
2021/05/24 07:41:00;;;;;;;0.17;0.17;;;14.80;99.90;;;;;;5013125;28;20557;-86
2021/05/24 07:43:26;;;;;;;1.07;0.40;;;14.90;99.90;;;;;;4998400;28;20195;-85
2021/05/24 07:45:52;;;;;;;0.10;0.10;;;14.90;99.90;;;;;;4995987;28;20199;-85
2021/05/24 07:48:17;;;;;;;0.10;0.10;;;14.90;99.90;;;;;;5012777;28;20217;-86
2021/05/24 07:50:43;;;;;;;0.40;0.30;;;15.20;99.90;;;;;;4995371;28;20187;-85
2021/05/24 07:53:09;;;;;;;2.47;0.37;;;15.70;99.90;;;;;;4995556;28;20651;-85
2021/05/24 07:55:34;;;;;;;0.57;0.57;;;15.10;99.90;;;;;;4995159;28;20229;-85
2021/05/24 07:58:00;;;;;;;0.27;0.27;;;15.20;99.90;;;;;;5012916;28;20617;-85
2021/05/24 08:00:27;;;;;;;0.40;0.30;;;15.30;99.90;;;;;;5013092;28;20181;-86
2021/05/24 08:02:53;;;;;;;0.97;0.53;;;15.20;99.90;;;;;;4995722;28;20238;-85
2021/05/24 08:05:19;;;;;;;0.77;0.40;;;15.50;99.90;;;;;;5012992;28;20200;-86
2021/05/24 08:07:45;;;;;;;0.30;0.30;;;15.50;99.90;;;;;;5012959;28;20204;-85
2021/05/24 08:10:17;;;;;;;0.27;0.27;;;15.00;99.90;;;;;;5013080;28;20670;-85
2021/05/24 08:12:43;;;;;;;0.70;0.60;;;14.90;99.90;;;;;;4995072;28;20191;-86
2021/05/24 08:15:14;;;;;;;0.20;0.20;;;15.20;99.90;;;;;;5012958;28;20201;-85
2021/05/24 08:17:41;;;;;;;0.10;0.10;;;15.20;99.90;;;;;;4995210;28;20200;-86
2021/05/24 08:20:09;;;;;;;0.20;0.20;;;15.70;99.90;;;;;;4995211;28;20213;-86
2021/05/24 08:22:34;;;;;;;0.27;0.27;;;16.30;99.90;;;;;;5012433;28;20186;-86
2021/05/24 08:25:00;;;;;;;0.20;0.20;;;16.90;99.90;;;;;;4995267;28;20222;-86
2021/05/24 08:27:26;;;;;;;0.20;0.20;;;17.20;99.90;;;;;;4994909;28;20209;-86
2021/05/24 08:29:51;;;;;;;0.57;0.53;;;17.00;99.90;;;;;;4994480;28;20228;-86
2021/05/24 08:32:17;;;;;;;0.30;0.30;;;17.20;99.90;;;;;;5012416;28;20194;-86
2021/05/24 08:34:43;;;;;;;0.40;0.40;;;16.60;99.90;;;;;;5012058;28;20198;-86
2021/05/24 08:37:08;;;;;;;0.30;0.30;;;16.50;99.90;;;;;;4994962;28;20227;-86
2021/05/24 08:39:34;;;;;;;0.47;0.47;;;16.30;99.90;;;;;;4995038;28;20197;-86
2021/05/24 08:42:00;;;;;;;0.20;0.20;;;16.40;99.90;;;;;;5012295;28;20278;-86
2021/05/24 08:44:27;;;;;;;0.13;0.13;;;16.40;99.90;;;;;;4994793;28;20245;-86
2021/05/24 08:46:53;;;;;;;0.10;0.10;;;16.90;99.90;;;;;;4997770;28;20191;-86
2021/05/24 08:49:19;;;;;;;0.20;0.20;;;17.50;99.90;;;;;;4998865;28;20179;-86
2021/05/24 08:51:44;;;;;;;0.70;0.43;;;18.00;99.90;;;;;;5015520;28;20194;-86
2021/05/24 08:54:10;;;;;;;0.20;0.20;;;18.10;99.90;;;;;;4998430;28;20191;-86
2021/05/24 08:56:37;;;;;;;0.20;0.20;;;18.10;99.90;;;;;;5000626;28;20225;-85
2021/05/24 08:59:03;;;;;;;0.93;0.93;;;17.50;99.90;;;;;;5004493;28;20194;-86
2021/05/24 09:01:29;;;;;;;0.60;0.60;;;17.20;99.90;;;;;;4998760;28;20674;-85
2021/05/24 09:04:03;;;;;;;0.10;0.10;;;17.30;99.90;;;;;;4999159;28;20190;-86
2021/05/24 09:06:40;;;;;;;0.40;0.40;;;17.10;99.90;;;;;;5016559;28;20198;-85
2021/05/24 09:09:16;;;;;;;0.20;0.20;;;16.60;99.90;;;;;;5016375;28;20198;-86
2021/05/24 09:11:44;;;;;;;0.30;0.30;;;16.70;99.90;;;;;;4986534;28;20190;-86
2021/05/24 09:14:21;;;;;;;0.27;0.27;;;17.10;99.90;;;;;;4998385;28;20191;-87
2021/05/24 09:16:57;;;;;;;0.20;0.20;;;17.50;99.90;;;;;;4998493;28;20187;-85
2021/05/24 09:19:25;;;;;;;0.53;0.30;;;17.60;99.90;;;;;;4997973;28;20663;-85
2021/05/24 09:21:56;;;;;;;0.47;0.47;;;18.10;99.90;;;;;;4998142;28;20270;-85
2021/05/24 09:24:30;;;;;;;0.10;0.10;;;18.10;99.90;;;;;;5015489;28;20298;-86
2021/05/24 09:27:01;;;;;;;0.20;0.20;;;18.30;99.90;;;;;;5015804;28;20254;-86
2021/05/24 09:29:39;;;;;;;0.20;0.20;;;18.40;99.90;;;;;;5015732;28;20266;-87
2021/05/24 09:32:24;;;;;;;0.10;0.10;;;18.60;99.90;;;;;;4997917;28;20193;-86
2021/05/24 09:34:51;;;;;;;1.03;0.93;;;18.40;99.90;;;;;;4997922;28;20210;-86
2021/05/24 09:37:20;;;;;;;0.20;0.20;;;18.50;99.90;;;;;;5015604;28;20249;-86
2021/05/24 09:39:46;;;;;;;0.87;0.23;;;18.70;99.90;;;;;;4997897;28;20217;-86
2021/05/24 09:42:14;;;;;;;0.10;0.10;;;18.60;99.90;;;;;;4997773;28;20631;-86
2021/05/24 09:44:44;;;;;;;0.13;0.13;;;18.50;99.90;;;;;;4997720;28;20214;-86
2021/05/24 09:47:11;;;;;;;0.20;0.20;;;18.60;99.90;;;;;;4997962;28;20207;-86
2021/05/24 09:49:36;;;;;;;0.20;0.20;;;18.50;99.90;;;;;;4997908;28;20206;-85
2021/05/24 09:52:02;;;;;;;0.20;0.20;;;18.30;99.90;;;;;;4997560;28;20222;-86
2021/05/24 09:54:38;;;;;;;0.10;0.10;;;18.70;99.90;;;;;;4997355;28;20255;-86
2021/05/24 09:57:11;;;;;;;0.27;0.27;;;19.00;99.90;;;;;;5014545;28;20191;-86
2021/05/24 09:59:38;;;;;;;0.20;0.20;;;18.50;99.90;;;;;;4997459;28;20194;-86
2021/05/24 10:02:07;;;;;;;0.10;0.10;;;18.60;99.90;;;;;;4997381;28;20194;-86
2021/05/24 10:04:35;;;;;;;0.50;0.50;;;19.40;99.90;;;;;;4997224;28;20687;-86
2021/05/24 10:07:02;;;;;;;0.23;0.23;;;19.90;99.90;;;;;;5019790;28;20183;-86
2021/05/24 10:09:31;;;;;;;0.90;0.60;;;20.30;99.90;;;;;;5015973;28;20194;-86
2021/05/24 10:11:59;;;;;;;0.30;0.30;;;20.40;99.90;;;;;;5014833;28;20178;-86
2021/05/24 10:14:27;;;;;;;0.20;0.20;;;20.50;99.90;;;;;;4997201;28;20206;-86
2021/05/24 10:16:57;;;;;;;1.13;0.60;;;20.20;99.90;;;;;;4997521;28;20657;-86
2021/05/24 10:19:23;;;;;;;0.23;0.23;;;20.00;99.90;;;;;;4997059;28;20198;-86
2021/05/24 10:21:50;;;;;;;0.10;0.10;;;20.80;99.90;;;;;;4997334;28;20184;-86
2021/05/24 10:24:20;;;;;;;0.17;0.17;;;21.00;99.90;;;;;;4997020;28;20187;-86
2021/05/24 10:26:46;;;;;;;0.20;0.20;;;21.10;99.90;;;;;;4996932;28;20678;-86
2021/05/24 10:29:13;;;;;;;0.53;0.23;;;21.50;99.90;;;;;;4996905;28;20207;-86
2021/05/24 10:31:39;;;;;;;0.20;0.20;;;21.60;99.90;;;;;;5003534;28;20202;-86
2021/05/24 10:34:14;;;;;;;0.10;0.10;;;21.70;99.90;;;;;;5014628;28;20201;-86
2021/05/24 10:36:41;;;;;;;0.43;0.43;;;21.90;99.90;;;;;;5014351;28;20178;-86
2021/05/24 10:39:11;;;;;;;0.30;0.30;;;22.00;99.90;;;;;;4997228;28;20191;-86
2021/05/24 10:41:47;;;;;;;0.20;0.20;;;21.90;99.90;;;;;;4996445;28;20190;-86
2021/05/24 10:44:15;;;;;;;0.17;0.17;;;21.60;99.90;;;;;;4996821;28;20191;-86
2021/05/24 10:46:41;;;;;;;0.20;0.20;;;21.90;99.90;;;;;;5014136;28;20183;-86
2021/05/24 10:49:12;;;;;;;0.10;0.10;;;21.80;99.90;;;;;;4996547;28;20706;-86
2021/05/24 10:51:57;;;;;;;0.20;0.20;;;21.80;99.90;;;;;;4997924;28;20584;-87
2021/05/24 10:54:26;;;;;;;0.43;0.40;;;21.80;99.90;;;;;;4996414;28;20925;-86
2021/05/24 10:57:00;;;;;;;0.30;0.30;;;21.90;99.90;;;;;;4996511;28;20563;-86
2021/05/24 10:59:41;;;;;;;0.40;0.40;;;21.90;99.90;;;;;;4996544;28;20182;-86
2021/05/24 11:02:08;;;;;;;0.40;0.40;;;21.80;99.90;;;;;;5013893;28;20549;-86
2021/05/24 11:04:51;;;;;;;0.10;0.10;;;21.50;99.90;;;;;;4996197;28;20211;-86
2021/05/24 11:07:42;;;;;;;0.23;0.23;;;21.60;99.90;;;;;;4996305;28;20199;-86
2021/05/24 11:10:14;;;;;;;3.93;0.37;;;21.70;99.90;;;;;;4996358;28;20186;-86
2021/05/24 11:12:41;;;;;;;0.13;0.13;;;21.80;99.90;;;;;;5012877;28;20254;-86
2021/05/24 11:15:09;;;;;;;0.20;0.20;;;21.80;99.90;;;;;;5013936;28;20198;-86
2021/05/24 11:18:00;;;;;;;0.10;0.10;;;22.00;99.90;;;;;;4987484;28;20191;-86
2021/05/24 11:20:51;;;;;;;0.10;0.10;;;21.90;99.90;;;;;;5014335;28;20183;-86
2021/05/24 11:26:16;;;;;;;0.10;0.10;;;21.80;99.90;;;;;;5010078;28;20195;-86
2021/05/24 11:28:58;;;;;;;0.20;0.20;;;21.80;99.90;;;;;;5008116;28;20202;-85
2021/05/24 11:31:41;;;;;;;0.27;0.20;;;21.80;99.90;;;;;;5007019;28;20659;-86
2021/05/24 11:34:08;;;;;;;0.60;0.50;;;21.60;99.90;;;;;;4999744;28;20175;-86
2021/05/24 11:36:39;;;;;;;0.20;0.20;;;21.50;99.90;;;;;;4995148;28;20256;-86
2021/05/24 11:39:16;;;;;;;0.20;0.20;;;21.40;99.90;;;;;;4994063;28;20660;-86
2021/05/24 11:42:04;;;;;;;0.20;0.20;;;21.30;99.90;;;;;;4994825;28;20202;-86
2021/05/24 11:44:38;;;;;;;0.30;0.30;;;21.60;99.90;;;;;;5004236;28;20766;-85
2021/05/24 11:47:09;;;;;;;0.13;0.13;;;22.10;99.90;;;;;;5011812;28;20240;-85
2021/05/24 11:49:41;;;;;;;0.50;0.33;;;22.60;99.90;;;;;;4994324;28;20317;-86
2021/05/24 11:52:20;;;;;;;1.90;0.27;;;23.00;99.90;;;;;;4989393;28;20206;-86
2021/05/24 11:54:50;;;;;;;0.10;0.10;;;22.90;99.90;;;;;;4988309;28;20219;-85
2021/05/24 11:57:21;;;;;;;2.00;0.43;;;22.60;99.90;;;;;;4994164;28;20194;-84
2021/05/24 11:59:47;;;;;;;0.20;0.20;;;22.20;99.90;;;;;;4992532;28;20191;-84
2021/05/24 12:02:14;;;;;;;0.30;0.30;;;22.20;99.90;;;;;;5011782;28;20658;-84
2021/05/24 12:04:43;;;;;;;0.40;0.40;;;22.00;99.90;;;;;;4987931;28;20281;-85
2021/05/24 12:07:16;;;;;;;0.20;0.20;;;22.10;99.90;;;;;;4993400;28;20201;-86
2021/05/24 12:09:53;;;;;;;0.20;0.20;;;22.50;99.90;;;;;;4993777;28;20192;-85
2021/05/24 12:12:24;;;;;;;0.53;0.40;;;22.70;99.90;;;;;;4999245;28;20193;-85
2021/05/24 12:14:56;;;;;;;0.20;0.20;;;22.50;99.90;;;;;;4996379;28;20199;-86
2021/05/24 12:17:25;;;;;;;0.20;0.20;;;22.80;99.90;;;;;;4997361;28;20648;-85
2021/05/24 12:19:53;;;;;;;0.10;0.10;;;22.90;99.90;;;;;;4996136;28;20179;-86
2021/05/24 12:22:21;;;;;;;0.17;0.17;;;23.00;99.90;;;;;;4996207;28;20220;-85
2021/05/24 12:24:49;;;;;;;0.20;0.20;;;23.40;99.90;;;;;;4991939;28;20257;-85
2021/05/24 12:27:17;;;;;;;0.17;0.17;;;23.40;99.90;;;;;;4992444;28;20190;-85
2021/05/24 12:30:14;;;;;;;0.10;0.10;;;23.40;99.90;;;;;;4983970;28;20237;-85
2021/05/24 12:32:41;;;;;;;0.17;0.17;;;23.30;99.90;;;;;;4994520;28;20199;-85
2021/05/24 12:35:14;;;;;;;0.10;0.10;;;23.30;99.90;;;;;;4995296;28;20190;-85
2021/05/24 12:37:49;;;;;;;0.20;0.20;;;23.30;99.90;;;;;;5011780;28;20273;-84
2021/05/24 12:40:14;;;;;;;1.50;1.03;;;23.30;99.90;;;;;;4995162;28;20178;-85
2021/05/24 12:42:41;;;;;;;0.10;0.10;;;23.20;99.90;;;;;;5012146;28;20237;-85
2021/05/24 12:45:10;;;;;;;1.20;0.37;;;23.20;99.90;;;;;;4993456;28;20285;-84
2021/05/24 12:47:36;;;;;;;0.10;0.10;;;23.00;99.90;;;;;;4991493;28;20294;-84
2021/05/24 12:50:13;;;;;;;0.20;0.20;;;22.90;99.90;;;;;;5009741;28;21058;-83
2021/05/24 12:52:39;;;;;;;1.13;0.93;;;22.90;99.90;;;;;;4996177;28;20187;-83
2021/05/24 12:55:17;;;;;;;0.10;0.10;;;22.80;99.90;;;;;;5000596;28;20225;-83